Time;durP1;ratioP1;P1;durP2;ratioP2;P2;SDS_P1;SDS_P2;PMS_P1;PMS_P2;Temp;Humidity;BMP_temperature;BMP_pressure;BME280_temperature;BME280_humidity;BME280_pressure;Samples;Min_cycle;Max_cycle;Signal;HPM_P1;HPM_P2
2021/10/26 00:02:00;;;;;;;11.27;6.85;;;;;;;5.56;80.21;96736.59;5047247;28;20427;-71
2021/10/26 00:04:26;;;;;;;11.55;7.20;;;;;;;5.55;80.26;96736.91;5047554;28;20041;-71
2021/10/26 00:06:52;;;;;;;11.23;7.07;;;;;;;5.54;80.33;96738.78;5047350;28;20045;-71
2021/10/26 00:09:19;;;;;;;11.52;7.38;;;;;;;5.54;79.96;96740.69;5047442;28;20053;-70
2021/10/26 00:11:47;;;;;;;10.85;6.95;;;;;;;5.50;80.11;96738.53;5046871;28;20049;-71
2021/10/26 00:14:14;;;;;;;10.00;6.13;;;;;;;5.48;79.47;96738.00;5047008;28;20583;-70
2021/10/26 00:16:40;;;;;;;10.82;6.13;;;;;;;5.43;79.65;96746.13;5047460;28;20052;-71
2021/10/26 00:19:07;;;;;;;11.48;6.47;;;;;;;5.43;79.61;96739.91;5046689;28;20483;-70
2021/10/26 00:21:34;;;;;;;10.07;6.18;;;;;;;5.42;79.63;96744.47;5044812;28;20048;-71
2021/10/26 00:24:00;;;;;;;10.25;6.18;;;;;;;5.43;79.94;96740.72;5046626;28;20053;-71
2021/10/26 00:26:27;;;;;;;9.73;6.28;;;;;;;5.40;79.80;96740.44;5042105;28;20053;-71
2021/10/26 00:28:56;;;;;;;9.40;6.32;;;;;;;5.38;79.47;96737.22;5045047;28;20053;-71
2021/10/26 00:31:24;;;;;;;11.45;6.50;;;;;;;5.32;79.58;96736.41;5046937;28;20445;-70
2021/10/26 00:33:51;;;;;;;8.32;5.50;;;;;;;5.29;79.55;96734.28;5046842;28;20103;-71
2021/10/26 00:36:17;;;;;;;10.38;6.05;;;;;;;5.29;79.77;96734.28;5046860;28;20052;-70
2021/10/26 00:38:44;;;;;;;10.18;5.88;;;;;;;5.30;79.67;96738.59;5046915;28;20045;-71
2021/10/26 00:41:10;;;;;;;7.80;5.63;;;;;;;5.33;79.26;96740.75;5046652;28;20420;-70
2021/10/26 00:43:37;;;;;;;12.70;5.68;;;;;;;5.35;78.59;96746.66;5047223;28;20412;-71
2021/10/26 00:46:04;;;;;;;9.38;5.30;;;;;;;5.33;78.35;96743.44;5046208;28;20044;-70
2021/10/26 00:48:31;;;;;;;9.88;5.65;;;;;;;5.30;78.05;96752.09;5046961;28;20049;-71
2021/10/26 00:50:58;;;;;;;8.68;5.55;;;;;;;5.27;78.53;96758.03;5046933;28;20060;-70
2021/10/26 00:53:25;;;;;;;8.32;5.47;;;;;;;5.21;78.49;96745.63;5047192;28;20053;-71
2021/10/26 00:55:52;;;;;;;8.95;5.75;;;;;;;5.19;78.65;96748.59;5046481;28;20504;-71
2021/10/26 00:58:19;;;;;;;10.68;5.70;;;;;;;5.21;78.04;96756.44;5046010;28;20060;-71
2021/10/26 01:00:46;;;;;;;8.65;5.15;;;;;;;5.16;77.90;96751.84;5046115;28;20053;-70
2021/10/26 01:03:14;;;;;;;8.75;5.65;;;;;;;5.13;78.16;96746.19;5045832;28;20563;-70
2021/10/26 01:05:41;;;;;;;8.93;5.40;;;;;;;5.11;78.20;96751.84;5047141;28;20045;-70
2021/10/26 01:08:07;;;;;;;8.95;5.38;;;;;;;5.08;78.11;96749.72;5045604;28;20049;-70
2021/10/26 01:10:34;;;;;;;7.95;4.97;;;;;;;5.07;78.25;96739.19;5047622;28;20060;-71
2021/10/26 01:13:02;;;;;;;7.78;5.47;;;;;;;5.09;77.83;96745.13;5045972;28;20558;-70
2021/10/26 01:15:29;;;;;;;8.45;5.07;;;;;;;5.06;77.72;96742.94;5047288;28;20041;-71
2021/10/26 01:17:55;;;;;;;7.82;4.82;;;;;;;4.97;77.82;96748.94;5048128;28;20900;-71
2021/10/26 01:20:23;;;;;;;8.30;5.18;;;;;;;4.94;78.25;96748.66;5050606;28;20052;-71
2021/10/26 01:22:50;;;;;;;9.52;5.30;;;;;;;4.88;78.13;96739.75;5050070;28;20787;-70
2021/10/26 01:25:16;;;;;;;8.27;4.80;;;;;;;4.85;78.46;96740.28;5050046;28;20057;-70
2021/10/26 01:27:47;;;;;;;8.15;5.20;;;;;;;4.84;78.51;96738.66;5041502;28;20045;-71
2021/10/26 01:30:15;;;;;;;8.90;4.78;;;;;;;4.84;78.71;96741.38;5029587;28;20056;-70
2021/10/26 01:32:42;;;;;;;9.63;4.70;;;;;;;4.83;78.73;96742.47;5030958;28;20049;-71
2021/10/26 01:35:09;;;;;;;8.00;5.43;;;;;;;4.79;78.77;96735.97;5029284;28;20061;-70
2021/10/26 01:37:37;;;;;;;9.65;6.35;;;;;;;4.79;78.72;96741.38;5030734;28;20056;-71
2021/10/26 01:40:04;;;;;;;8.18;5.80;;;;;;;4.79;78.61;96746.78;5029333;28;20045;-70
2021/10/26 01:42:31;;;;;;;9.75;6.07;;;;;;;4.78;78.42;96739.75;5030591;28;20053;-71
2021/10/26 01:44:58;;;;;;;10.18;6.72;;;;;;;4.74;78.22;96744.06;5029821;28;20137;-71
2021/10/26 01:47:24;;;;;;;9.75;5.85;;;;;;;4.73;78.38;96747.84;5030497;28;20041;-71
2021/10/26 01:49:51;;;;;;;11.23;5.88;;;;;;;4.71;78.47;96747.34;5030665;28;20068;-71
2021/10/26 01:52:17;;;;;;;10.48;6.10;;;;;;;4.69;78.34;96738.69;5029571;28;20054;-71
2021/10/26 01:54:45;;;;;;;8.88;5.47;;;;;;;4.67;78.50;96738.16;5030322;28;20668;-71
2021/10/26 01:57:16;;;;;;;8.20;5.38;;;;;;;4.65;78.46;96740.31;5028453;28;20412;-70
2021/10/26 01:59:42;;;;;;;7.95;5.43;;;;;;;4.64;78.63;96744.06;5010659;28;20100;-71
2021/10/26 02:02:09;;;;;;;8.32;5.22;;;;;;;4.64;78.85;96744.06;5010060;28;20053;-70
2021/10/26 02:04:36;;;;;;;7.38;5.13;;;;;;;4.62;78.79;96743.56;5010504;28;20053;-71
2021/10/26 02:07:03;;;;;;;7.95;5.35;;;;;;;4.64;78.79;96744.06;5017432;28;20444;-70
2021/10/26 02:09:30;;;;;;;6.70;4.95;;;;;;;4.64;78.89;96744.06;5029670;28;20806;-70
2021/10/26 02:11:58;;;;;;;7.95;4.88;;;;;;;4.64;78.88;96739.50;5029562;28;20111;-70
2021/10/26 02:14:24;;;;;;;7.75;4.68;;;;;;;4.65;78.73;96741.13;5029184;28;20129;-70
2021/10/26 02:16:51;;;;;;;7.85;4.82;;;;;;;4.62;78.43;96735.47;5029736;28;20420;-70
2021/10/26 02:19:17;;;;;;;8.27;4.70;;;;;;;4.59;78.85;96736.78;5028803;28;20053;-70
2021/10/26 02:21:44;;;;;;;8.50;5.03;;;;;;;4.63;78.92;96750.56;5030178;28;20053;-71
2021/10/26 02:24:10;;;;;;;10.43;5.40;;;;;;;4.64;78.95;96754.88;5028354;28;20049;-70
2021/10/26 02:26:37;;;;;;;9.07;5.22;;;;;;;4.65;79.01;96756.50;5034931;28;20048;-70
2021/10/26 02:29:05;;;;;;;8.20;4.90;;;;;;;4.68;78.89;96750.56;5028324;28;20041;-70
2021/10/26 02:31:32;;;;;;;8.52;5.20;;;;;;;4.65;78.67;96751.13;5029714;28;20189;-70
2021/10/26 02:33:58;;;;;;;7.82;4.65;;;;;;;4.66;78.63;96752.72;5028853;28;20054;-71
2021/10/26 02:36:25;;;;;;;6.90;4.50;;;;;;;4.65;78.60;96751.13;5028700;28;20045;-70
2021/10/26 02:38:51;;;;;;;7.70;4.90;;;;;;;4.67;78.56;96759.75;5028898;28;20049;-71
2021/10/26 02:41:18;;;;;;;8.57;4.75;;;;;;;4.67;78.38;96759.75;5028198;28;20050;-71
2021/10/26 02:43:45;;;;;;;9.05;4.47;;;;;;;4.66;78.00;96760.81;5029128;28;20050;-70
2021/10/26 02:46:13;;;;;;;6.53;4.78;;;;;;;4.64;77.92;96754.88;5027836;28;20457;-70
2021/10/26 02:48:42;;;;;;;6.82;4.38;;;;;;;4.64;77.93;96754.88;5029212;28;20045;-71
2021/10/26 02:51:08;;;;;;;8.10;4.63;;;;;;;4.63;77.37;96756.75;5027851;28;20050;-70
2021/10/26 02:53:35;;;;;;;5.90;4.45;;;;;;;4.58;77.44;96756.75;5029186;28;20049;-70
2021/10/26 02:56:01;;;;;;;6.65;4.63;;;;;;;4.57;76.72;96755.16;5028364;28;20045;-70
2021/10/26 02:58:27;;;;;;;10.35;4.40;;;;;;;4.56;77.10;96758.94;5034090;28;20052;-70
2021/10/26 03:00:54;;;;;;;8.77;4.80;;;;;;;4.56;77.03;96763.50;5028975;28;20052;-71
2021/10/26 03:03:22;;;;;;;8.75;4.65;;;;;;;4.54;77.17;96765.66;5028351;28;20543;-70
2021/10/26 03:05:48;;;;;;;6.72;4.10;;;;;;;4.50;77.62;96764.59;5029308;28;20413;-71
2021/10/26 03:08:16;;;;;;;9.85;5.00;;;;;;;4.46;77.68;96758.94;5027760;28;20481;-70
2021/10/26 03:10:42;;;;;;;7.70;4.55;;;;;;;4.41;77.71;96764.31;5029278;28;20045;-71
2021/10/26 03:13:09;;;;;;;9.07;4.50;;;;;;;4.38;77.88;96762.94;5027708;28;20321;-70
2021/10/26 03:15:35;;;;;;;7.97;4.72;;;;;;;4.35;77.84;96766.19;5029342;28;20053;-70
2021/10/26 03:18:02;;;;;;;7.20;4.25;;;;;;;4.36;78.11;96775.91;5027270;28;20785;-69
2021/10/26 03:20:30;;;;;;;7.07;4.47;;;;;;;4.36;78.37;96765.13;5028490;28;20049;-70
2021/10/26 03:22:57;;;;;;;6.80;4.20;;;;;;;4.37;78.31;96766.72;5028243;28;20432;-71
2021/10/26 03:25:24;;;;;;;6.90;4.40;;;;;;;4.30;78.07;96776.97;5027862;28;20054;-70
2021/10/26 03:27:50;;;;;;;6.93;4.45;;;;;;;4.29;78.14;96769.97;5033728;28;20509;-70
2021/10/26 03:30:18;;;;;;;9.38;4.22;;;;;;;4.27;78.04;96769.41;5027183;28;20468;-70
2021/10/26 03:32:44;;;;;;;8.02;4.03;;;;;;;4.25;78.19;96763.47;5028305;28;20042;-70
2021/10/26 03:35:11;;;;;;;6.72;4.30;;;;;;;4.28;78.17;96773.75;5026683;28;20063;-70
2021/10/26 03:37:41;;;;;;;8.50;4.45;;;;;;;4.32;77.85;96779.38;5028420;28;20152;-70
2021/10/26 03:40:09;;;;;;;6.75;4.30;;;;;;;4.33;78.01;96787.22;5026014;28;20140;-70
2021/10/26 03:42:36;;;;;;;6.53;4.03;;;;;;;4.38;77.20;96784.50;5028119;28;20053;-71
2021/10/26 03:45:04;;;;;;;8.65;4.18;;;;;;;4.35;77.07;96790.47;5027118;28;20135;-70
2021/10/26 03:47:30;;;;;;;10.05;4.55;;;;;;;4.35;77.50;96792.34;5027417;28;20053;-70
2021/10/26 03:49:57;;;;;;;8.18;4.20;;;;;;;4.32;77.56;96785.59;5027431;28;20057;-70
2021/10/26 03:52:23;;;;;;;7.13;4.00;;;;;;;4.28;77.72;96789.09;5027845;28;20505;-70
2021/10/26 03:54:55;;;;;;;7.43;4.38;;;;;;;4.24;77.97;96780.75;5026801;28;20069;-71
2021/10/26 03:57:22;;;;;;;6.90;4.15;;;;;;;4.23;77.90;96781.81;5022245;28;20136;-70
2021/10/26 03:59:48;;;;;;;6.53;3.90;;;;;;;4.21;78.16;96783.97;5047904;28;20045;-70
2021/10/26 04:02:19;;;;;;;8.60;4.90;;;;;;;4.17;78.22;96782.88;5046598;28;20053;-70
2021/10/26 04:04:46;;;;;;;6.63;4.28;;;;;;;4.17;78.15;96783.66;5046988;28;20052;-71
2021/10/26 04:07:13;;;;;;;7.50;4.07;;;;;;;4.20;78.32;96790.44;5046749;28;20053;-70
2021/10/26 04:09:46;;;;;;;7.80;3.55;;;;;;;4.22;78.06;96790.16;5047259;28;20451;-71
2021/10/26 04:12:23;;;;;;;;;;;;;;;4.24;77.72;96788.81;5047772;28;20052;-70
2021/10/26 04:14:51;;;;;;;7.88;3.97;;;;;;;4.21;77.88;96792.03;5046785;28;20015;-70
2021/10/26 04:17:19;;;;;;;6.72;3.88;;;;;;;4.21;78.04;96794.75;5028945;28;20057;-70
2021/10/26 04:19:46;;;;;;;7.20;4.22;;;;;;;4.25;77.98;96795.03;5026813;28;20038;-70
2021/10/26 04:22:12;;;;;;;6.82;3.85;;;;;;;4.24;77.77;96794.22;5027703;28;20071;-70
2021/10/26 04:24:39;;;;;;;6.05;3.70;;;;;;;4.24;77.90;96799.59;5027075;28;20045;-70
2021/10/26 04:27:06;;;;;;;6.30;3.95;;;;;;;4.26;77.94;96802.03;5033670;28;20611;-70
2021/10/26 04:29:33;;;;;;;7.28;3.85;;;;;;;4.23;77.89;96798.00;5045971;28;20064;-70
2021/10/26 04:32:00;;;;;;;6.05;3.83;;;;;;;4.24;78.04;96799.59;5046755;28;20060;-70
2021/10/26 04:34:26;;;;;;;7.97;3.92;;;;;;;4.24;78.07;96805.00;5046899;28;20053;-71
2021/10/26 04:36:53;;;;;;;6.57;3.78;;;;;;;4.27;77.71;96809.84;5046971;28;20060;-71
2021/10/26 04:39:20;;;;;;;6.68;3.97;;;;;;;4.27;78.10;96817.13;5047086;28;20052;-70
2021/10/26 04:41:47;;;;;;;6.82;4.03;;;;;;;4.25;78.31;96811.19;5046675;28;20076;-70
2021/10/26 04:44:13;;;;;;;8.23;4.65;;;;;;;4.25;78.46;96816.59;5046941;28;20049;-71
2021/10/26 04:46:41;;;;;;;7.65;3.83;;;;;;;4.24;78.56;96815.78;5046641;28;20059;-70
2021/10/26 04:49:08;;;;;;;5.60;3.85;;;;;;;4.26;78.60;96818.22;5046293;28;20432;-71
2021/10/26 04:51:34;;;;;;;7.97;3.78;;;;;;;4.29;78.63;96815.78;5049396;28;20053;-70
2021/10/26 04:54:01;;;;;;;7.88;3.35;;;;;;;4.33;78.77;96824.97;5051543;28;20052;-70
2021/10/26 04:56:27;;;;;;;5.93;3.67;;;;;;;4.38;78.19;96824.16;5050729;28;20052;-70
2021/10/26 04:58:54;;;;;;;6.07;3.47;;;;;;;4.40;77.83;96839.00;5050881;28;20052;-71
2021/10/26 05:01:20;;;;;;;6.38;3.78;;;;;;;4.40;77.68;96836.31;5050755;28;20056;-70
2021/10/26 05:03:48;;;;;;;8.38;3.65;;;;;;;4.40;77.56;96841.69;5050243;28;20053;-71
2021/10/26 05:06:15;;;;;;;6.75;3.95;;;;;;;4.38;77.69;96838.44;5051194;28;20540;-70
2021/10/26 05:08:41;;;;;;;12.80;3.65;;;;;;;4.35;77.76;96838.19;5050487;28;20393;-70
2021/10/26 05:11:08;;;;;;;5.95;3.80;;;;;;;4.37;77.87;96836.81;5050727;28;20067;-70
2021/10/26 05:13:34;;;;;;;11.25;3.80;;;;;;;4.36;78.30;96834.41;5050193;28;20508;-70
2021/10/26 05:16:02;;;;;;;8.07;4.45;;;;;;;4.37;78.53;96839.53;5050887;28;20084;-71
2021/10/26 05:18:31;;;;;;;8.52;4.68;;;;;;;4.41;78.77;96843.31;5030067;28;20049;-73
2021/10/26 05:21:03;;;;;;;5.80;3.60;;;;;;;4.47;78.49;96848.72;5029760;28;20054;-73
2021/10/26 05:23:30;;;;;;;6.45;3.80;;;;;;;4.49;78.40;96838.47;5030088;28;20076;-73
2021/10/26 05:25:56;;;;;;;8.50;4.20;;;;;;;4.49;78.67;96836.59;5030348;28;20052;-73
2021/10/26 05:28:23;;;;;;;6.75;4.10;;;;;;;4.51;78.64;96837.13;5018659;28;20050;-73
2021/10/26 05:30:49;;;;;;;8.48;3.90;;;;;;;4.56;78.95;96839.84;5042732;28;20418;-73
2021/10/26 05:33:16;;;;;;;9.07;3.78;;;;;;;4.60;79.15;96842.81;5050131;28;20568;-73
2021/10/26 05:35:42;;;;;;;6.50;4.35;;;;;;;4.63;78.99;96848.47;5049675;28;20490;-73
2021/10/26 05:38:10;;;;;;;8.27;3.80;;;;;;;4.68;79.17;96847.66;5050134;28;20053;-73
2021/10/26 05:40:37;;;;;;;5.82;3.67;;;;;;;4.71;79.18;96847.16;5049128;28;20048;-74
2021/10/26 05:43:04;;;;;;;8.88;4.18;;;;;;;4.74;79.10;96849.28;5049769;28;20048;-74
2021/10/26 05:45:30;;;;;;;6.78;4.05;;;;;;;4.80;78.77;96859.00;5050349;28;20550;-73
2021/10/26 05:47:57;;;;;;;6.53;3.60;;;;;;;4.83;79.17;96855.78;5049952;28;20547;-73
2021/10/26 05:50:23;;;;;;;9.25;4.15;;;;;;;4.89;78.60;96868.19;5049995;28;20056;-74
2021/10/26 05:52:50;;;;;;;6.43;3.60;;;;;;;4.92;78.48;96875.78;5049216;28;20049;-74
2021/10/26 05:55:18;;;;;;;10.65;3.75;;;;;;;4.94;78.79;96873.59;5049980;28;20045;-74
2021/10/26 05:57:44;;;;;;;8.95;3.83;;;;;;;4.96;78.82;96871.47;5049279;28;20523;-74
2021/10/26 06:00:12;;;;;;;8.63;3.47;;;;;;;4.98;78.77;96877.38;5049937;28;20519;-74
2021/10/26 06:02:38;;;;;;;7.45;3.58;;;;;;;5.05;78.71;96879.81;5048831;28;20055;-73
2021/10/26 06:05:05;;;;;;;7.55;3.47;;;;;;;5.10;78.29;96873.59;5049519;28;20056;-74
2021/10/26 06:07:32;;;;;;;6.55;3.20;;;;;;;5.12;78.54;96879.56;5049549;28;20053;-75
2021/10/26 06:09:58;;;;;;;6.28;3.60;;;;;;;5.17;78.84;96876.88;5049184;28;20048;-74
2021/10/26 06:12:30;;;;;;;5.72;3.50;;;;;;;5.18;78.96;96881.19;5049709;28;20052;-74
2021/10/26 06:14:56;;;;;;;5.97;3.40;;;;;;;5.26;78.90;96890.63;5049179;28;20060;-74
2021/10/26 06:17:24;;;;;;;6.20;3.33;;;;;;;5.32;78.46;96884.94;5049728;28;20045;-74
2021/10/26 06:19:51;;;;;;;6.30;3.65;;;;;;;5.39;78.61;96890.88;5049072;28;20059;-74
2021/10/26 06:22:17;;;;;;;6.95;3.85;;;;;;;5.45;77.10;96895.19;5049621;28;20416;-74
2021/10/26 06:24:46;;;;;;;6.00;3.45;;;;;;;5.52;77.63;96894.09;5049209;28;20049;-73
2021/10/26 06:27:12;;;;;;;6.25;3.80;;;;;;;5.61;77.20;96908.69;5049099;28;20140;-74
2021/10/26 06:29:40;;;;;;;6.10;3.45;;;;;;;5.67;77.18;96908.41;5049109;28;20080;-73
2021/10/26 06:32:07;;;;;;;7.25;4.03;;;;;;;5.73;77.80;96917.31;5048900;28;20045;-74
2021/10/26 06:34:33;;;;;;;9.40;3.55;;;;;;;5.74;77.59;96919.75;5049593;28;20048;-74
2021/10/26 06:37:00;;;;;;;7.18;3.88;;;;;;;5.80;77.89;96920.56;5049052;28;20049;-73
2021/10/26 06:39:26;;;;;;;8.57;3.72;;;;;;;5.86;77.79;96930.25;5049239;28;20051;-74
2021/10/26 06:41:53;;;;;;;7.78;4.05;;;;;;;5.90;77.59;96928.63;5048478;28;20049;-74
2021/10/26 06:44:20;;;;;;;8.30;4.35;;;;;;;5.92;77.65;96915.69;5049255;28;20053;-74
2021/10/26 06:46:48;;;;;;;8.77;3.85;;;;;;;5.97;77.70;96928.38;5048731;28;20045;-74
2021/10/26 06:49:14;;;;;;;7.40;3.58;;;;;;;6.03;77.40;96926.47;5048976;28;20056;-74
2021/10/26 06:51:41;;;;;;;5.97;3.97;;;;;;;6.10;77.18;96933.19;5048776;28;20060;-72
2021/10/26 06:54:09;;;;;;;9.15;4.05;;;;;;;6.14;76.97;96930.75;5048405;28;20562;-73
2021/10/26 06:56:35;;;;;;;8.88;4.13;;;;;;;6.20;77.30;96935.88;5049084;28;20118;-74
2021/10/26 06:59:02;;;;;;;8.02;4.65;;;;;;;6.37;77.49;96934.72;5048080;28;20590;-73
2021/10/26 07:01:28;;;;;;;11.60;4.68;;;;;;;6.50;77.58;96932.25;5049185;28;20052;-75
2021/10/26 07:03:56;;;;;;;7.43;4.43;;;;;;;6.63;77.34;96946.25;5048513;28;20045;-74
2021/10/26 07:06:23;;;;;;;8.15;4.80;;;;;;;6.75;76.46;96949.47;5048916;28;20060;-74
2021/10/26 07:08:49;;;;;;;11.10;5.82;;;;;;;6.87;75.26;96952.63;5048314;28;20044;-73
2021/10/26 07:11:16;;;;;;;11.98;6.70;;;;;;;6.94;74.84;96953.16;5048605;28;20527;-73
2021/10/26 07:13:42;;;;;;;12.40;5.93;;;;;;;6.99;74.91;96961.22;5048143;28;20416;-74
2021/10/26 07:16:09;;;;;;;11.45;6.28;;;;;;;7.07;75.50;96963.34;5048345;28;20048;-74
2021/10/26 07:18:35;;;;;;;13.82;7.53;;;;;;;7.14;75.93;96962.22;5048306;28;20049;-74
2021/10/26 07:21:03;;;;;;;13.75;7.82;;;;;;;7.19;76.25;96960.28;5048176;28;20060;-73
2021/10/26 07:23:31;;;;;;;14.30;7.10;;;;;;;7.23;76.14;96963.25;5048705;28;20044;-74
2021/10/26 07:25:58;;;;;;;13.20;7.00;;;;;;;7.26;76.33;96959.97;5048077;28;20099;-74
2021/10/26 07:28:24;;;;;;;12.20;6.85;;;;;;;7.31;76.40;96962.66;5048285;28;20049;-74
2021/10/26 07:30:51;;;;;;;11.25;5.95;;;;;;;7.37;76.74;96972.38;5047559;28;20053;-74
2021/10/26 07:33:21;;;;;;;13.35;6.57;;;;;;;7.43;76.77;96971.22;5046838;28;20045;-74
2021/10/26 07:35:49;;;;;;;11.98;5.72;;;;;;;7.48;76.92;96971.19;5047752;28;20063;-74
2021/10/26 07:38:27;;;;;;;11.65;5.90;;;;;;;7.54;76.86;96966.53;5047683;28;20045;-75
2021/10/26 07:40:54;;;;;;;13.52;7.05;;;;;;;7.61;76.59;96969.72;5048045;28;20411;-74
2021/10/26 07:43:20;;;;;;;11.82;5.82;;;;;;;7.71;76.75;96972.34;5047377;28;20055;-75
2021/10/26 07:45:47;;;;;;;11.32;5.95;;;;;;;7.82;76.77;96973.06;5048511;28;20102;-74
2021/10/26 07:48:13;;;;;;;11.50;5.63;;;;;;;7.91;76.79;96971.38;5047117;28;20045;-76
2021/10/26 07:50:42;;;;;;;12.63;6.57;;;;;;;7.99;76.40;96973.47;5048101;28;20049;-75
2021/10/26 07:53:08;;;;;;;10.40;5.95;;;;;;;8.05;76.04;96972.31;5047351;28;20073;-73
2021/10/26 07:55:37;;;;;;;14.63;6.80;;;;;;;8.16;75.61;96977.66;5048452;28;20688;-74
2021/10/26 07:58:03;;;;;;;12.55;6.78;;;;;;;8.27;75.71;96976.44;5046789;28;20048;-75
2021/10/26 08:00:30;;;;;;;14.93;7.30;;;;;;;8.32;74.35;96987.25;5047567;28;20037;-75
2021/10/26 08:02:57;;;;;;;13.00;7.07;;;;;;;8.39;74.40;96976.06;5047687;28;20048;-75
2021/10/26 08:05:23;;;;;;;13.75;7.68;;;;;;;8.42;74.52;96979.03;5047324;28;20053;-74
2021/10/26 08:07:50;;;;;;;11.50;7.13;;;;;;;8.45;74.34;96975.72;5047989;28;20048;-74
2021/10/26 08:10:16;;;;;;;11.77;6.90;;;;;;;8.48;74.53;96980.56;5046567;28;20567;-75
2021/10/26 08:12:44;;;;;;;11.10;6.55;;;;;;;8.58;74.41;96980.47;5048394;28;20051;-74
2021/10/26 08:15:11;;;;;;;14.15;6.55;;;;;;;8.71;73.70;96983.56;5046815;28;20053;-75
2021/10/26 08:17:37;;;;;;;11.48;6.13;;;;;;;8.87;72.83;96983.09;5047967;28;20045;-74
2021/10/26 08:20:06;;;;;;;9.75;5.80;;;;;;;9.07;73.34;96978.47;5046668;28;20076;-74
2021/10/26 08:22:36;;;;;;;11.00;6.30;;;;;;;9.41;73.18;96992.66;5048155;28;20045;-77
2021/10/26 08:25:09;;;;;;;11.07;6.00;;;;;;;9.92;71.29;96985.63;5047057;28;20057;-73
2021/10/26 08:27:35;;;;;;;14.27;6.60;;;;;;;10.03;69.09;96976.16;5047418;28;20044;-75
2021/10/26 08:30:10;;;;;;;11.70;6.88;;;;;;;10.04;69.44;96982.41;5047459;28;20524;-74
2021/10/26 08:35:25;;;;;;;15.10;6.40;;;;;;;10.16;68.83;96986.25;5047574;28;20114;-75
2021/10/26 08:37:55;;;;;;;12.93;6.18;;;;;;;10.11;69.28;96986.34;5047197;28;20049;-76
2021/10/26 08:40:23;;;;;;;13.48;6.88;;;;;;;10.11;70.40;96980.91;5047167;28;20056;-77
2021/10/26 08:42:51;;;;;;;13.68;7.28;;;;;;;10.10;69.54;96987.47;5047476;28;20128;-74
2021/10/26 08:45:21;;;;;;;14.57;8.02;;;;;;;10.12;70.38;96985.22;5046849;28;20044;-75
2021/10/26 08:47:48;;;;;;;14.43;7.22;;;;;;;10.09;70.09;96985.84;5047535;28;20048;-74
2021/10/26 08:50:15;;;;;;;19.48;7.60;;;;;;;10.16;69.58;96986.25;5046460;28;20049;-75
2021/10/26 08:52:44;;;;;;;13.10;7.22;;;;;;;10.24;70.33;96987.53;5047813;28;20048;-78
2021/10/26 08:55:12;;;;;;;19.35;7.97;;;;;;;10.30;70.80;96986.31;5046174;28;20049;-74
2021/10/26 08:57:39;;;;;;;14.02;7.45;;;;;;;10.32;70.74;96986.00;5047959;28;20412;-74
2021/10/26 09:00:08;;;;;;;17.73;8.23;;;;;;;10.14;72.82;96988.47;5046133;28;20049;-74
2021/10/26 09:02:40;;;;;;;14.38;8.15;;;;;;;10.10;74.98;96984.75;5047931;28;20041;-74
2021/10/26 09:05:09;;;;;;;17.85;8.55;;;;;;;9.97;74.66;96988.25;5046648;28;20059;-75
2021/10/26 09:07:36;;;;;;;19.83;9.05;;;;;;;9.90;76.18;96995.97;5047272;28;20164;-75
2021/10/26 09:10:15;;;;;;;16.67;8.68;;;;;;;9.89;77.32;96988.91;5047040;28;20053;-74
2021/10/26 09:18:25;;;;;;;14.23;8.23;;;;;;;10.02;77.45;96990.84;5046116;28;20415;-74
2021/10/26 09:20:52;;;;;;;13.90;9.25;;;;;;;9.97;77.32;96993.69;5047220;28;20053;-73
2021/10/26 09:23:26;;;;;;;17.67;9.32;;;;;;;9.92;78.00;96989.13;5046287;28;20049;-74
2021/10/26 09:25:56;;;;;;;15.10;8.55;;;;;;;9.94;77.25;96989.63;5047042;28;20057;-74
2021/10/26 09:28:23;;;;;;;17.15;8.93;;;;;;;9.98;77.82;96998.03;5047068;28;20049;-74
2021/10/26 09:31:00;;;;;;;15.48;9.07;;;;;;;9.96;77.47;96991.25;5046199;28;20496;-74
2021/10/26 09:33:33;;;;;;;19.13;9.20;;;;;;;9.97;77.82;96992.84;5046819;28;20052;-75
2021/10/26 09:36:22;;;;;;;14.68;8.60;;;;;;;10.00;77.70;96995.78;5047342;28;20045;-74
2021/10/26 09:38:56;;;;;;;15.52;8.80;;;;;;;10.05;78.14;97000.34;5048534;28;20041;-74
2021/10/26 09:41:23;;;;;;;17.90;9.02;;;;;;;10.02;76.86;97001.72;5050258;28;20053;-74
2021/10/26 09:43:49;;;;;;;14.27;8.40;;;;;;;10.04;77.64;97001.47;5049882;28;20049;-74
2021/10/26 09:46:16;;;;;;;18.40;9.48;;;;;;;10.08;77.52;96995.13;5050542;28;20052;-75
2021/10/26 09:48:44;;;;;;;15.93;8.68;;;;;;;10.22;77.00;96999.78;5050058;28;20060;-75
2021/10/26 09:51:20;;;;;;;15.55;8.88;;;;;;;10.35;76.24;97009.91;5050288;28;20052;-75
2021/10/26 09:53:56;;;;;;;18.55;8.30;;;;;;;10.47;75.52;97002.06;5050220;28;20048;-74
2021/10/26 09:56:22;;;;;;;14.45;8.98;;;;;;;10.54;75.82;97010.63;5049885;28;20045;-74
2021/10/26 09:58:49;;;;;;;15.25;8.63;;;;;;;10.59;74.74;97005.09;5050520;28;20673;-75
2021/10/26 10:01:25;;;;;;;13.45;8.77;;;;;;;10.72;73.84;96998.03;5049338;28;20570;-74
2021/10/26 10:04:03;;;;;;;13.02;8.25;;;;;;;10.88;74.03;97001.25;5050592;28;20049;-74
2021/10/26 10:06:48;;;;;;;16.15;8.90;;;;;;;11.05;73.09;96996.00;5049212;28;20052;-74
2021/10/26 10:09:19;;;;;;;14.80;8.40;;;;;;;11.29;74.23;96990.31;5050189;28;20586;-74
2021/10/26 10:11:58;;;;;;;16.30;8.50;;;;;;;11.38;70.84;96993.91;5049757;28;20052;-74
2021/10/26 10:14:24;;;;;;;12.85;8.10;;;;;;;11.34;71.69;96992.09;5049639;28;20048;-75
2021/10/26 10:16:51;;;;;;;15.10;8.43;;;;;;;11.40;71.49;96988.16;5049819;28;20076;-74
2021/10/26 10:19:20;;;;;;;16.13;9.00;;;;;;;11.47;71.20;96983.88;5048957;28;20049;-74
2021/10/26 10:21:50;;;;;;;14.15;8.73;;;;;;;11.60;71.00;96984.94;5049928;28;20048;-75
2021/10/26 10:24:18;;;;;;;15.32;9.23;;;;;;;11.71;70.22;96986.31;5048893;28;20053;-77
2021/10/26 10:26:51;;;;;;;16.95;9.35;;;;;;;11.74;69.11;96974.78;5050219;28;20072;-76
2021/10/26 10:29:20;;;;;;;13.45;8.43;;;;;;;11.73;69.87;96975.88;5049180;28;20099;-73
2021/10/26 10:31:49;;;;;;;17.55;10.15;;;;;;;11.72;69.03;96976.22;5049368;28;20063;-73
2021/10/26 10:34:20;;;;;;;15.48;9.70;;;;;;;11.72;70.50;96977.00;5049228;28;20101;-75
2021/10/26 10:36:49;;;;;;;18.58;10.43;;;;;;;11.70;70.81;96981.97;5049225;28;20052;-74
2021/10/26 10:39:18;;;;;;;20.55;11.07;;;;;;;11.85;70.52;96974.56;5048941;28;20052;-74
2021/10/26 10:41:45;;;;;;;15.98;9.73;;;;;;;11.98;70.27;96979.16;5048902;28;20083;-76
2021/10/26 10:44:36;;;;;;;17.35;10.88;;;;;;;12.04;70.59;96980.63;5049201;28;20049;-75
2021/10/26 10:47:04;;;;;;;18.83;9.57;;;;;;;12.12;69.82;96979.88;5042325;28;20053;-73
2021/10/26 10:49:50;;;;;;;16.80;10.20;;;;;;;12.25;71.08;96984.44;5049017;28;20132;-74
2021/10/26 10:52:30;;;;;;;17.67;10.38;;;;;;;12.40;69.63;96985.16;5049015;28;20045;-74
2021/10/26 10:54:57;;;;;;;17.67;10.38;;;;;;;12.35;68.80;96980.63;5048495;28;20049;-74
2021/10/26 10:57:30;;;;;;;19.52;10.23;;;;;;;12.25;68.70;96976.25;5049265;28;20049;-73
2021/10/26 10:59:58;;;;;;;19.85;10.75;;;;;;;12.14;69.75;96985.81;5048483;28;20076;-75
2021/10/26 11:02:27;;;;;;;19.10;10.18;;;;;;;12.03;70.59;96976.28;5049075;28;20061;-74
2021/10/26 11:04:56;;;;;;;16.75;9.73;;;;;;;12.04;70.63;96972.44;5048593;28;20065;-76
2021/10/26 11:07:49;;;;;;;18.08;9.85;;;;;;;12.08;70.95;96967.97;5049092;28;20049;-75
2021/10/26 11:10:16;;;;;;;;;;;;;;;12.09;71.45;96968.78;5049090;28;20135;-76
2021/10/26 11:12:45;;;;;;;17.85;10.13;;;;;;;12.17;70.61;96974.28;5048716;28;20268;-74
2021/10/26 11:15:16;;;;;;;15.18;10.18;;;;;;;12.27;71.02;96965.84;5048802;28;20132;-75
2021/10/26 11:17:54;;;;;;;18.92;10.07;;;;;;;12.38;70.60;96969.09;5048120;28;20052;-74
2021/10/26 11:20:52;;;;;;;19.92;10.02;;;;;;;12.44;69.90;96969.75;5048278;28;20049;-75
2021/10/26 11:23:32;;;;;;;16.63;9.85;;;;;;;12.38;69.94;96973.75;4986006;28;20046;-75
2021/10/26 11:26:01;;;;;;;16.92;10.43;;;;;;;12.37;70.71;96977.59;5039699;28;20041;-75
2021/10/26 11:28:46;;;;;;;22.20;10.57;;;;;;;12.26;70.35;96980.59;5048527;28;20049;-75
2021/10/26 11:31:15;;;;;;;16.85;9.60;;;;;;;12.18;70.94;96986.81;5047719;28;20052;-75
2021/10/26 11:34:01;;;;;;;19.73;10.23;;;;;;;12.20;70.89;96989.22;5048848;28;20040;-75
2021/10/26 11:36:32;;;;;;;25.35;10.68;;;;;;;12.22;70.95;96985.09;5048165;28;20045;-75
2021/10/26 11:39:01;;;;;;;16.38;10.55;;;;;;;12.16;71.62;96980.88;5048126;28;20049;-75
2021/10/26 11:41:29;;;;;;;15.48;10.25;;;;;;;12.36;72.18;96989.63;5048273;28;20045;-75
2021/10/26 11:43:57;;;;;;;18.88;10.27;;;;;;;12.43;70.16;96985.34;5047627;28;20037;-75
2021/10/26 11:46:29;;;;;;;17.70;9.48;;;;;;;12.55;70.99;96976.56;5048249;28;20049;-76
2021/10/26 11:48:59;;;;;;;16.40;10.18;;;;;;;12.65;70.60;96981.75;5047747;28;20049;-75
2021/10/26 11:51:27;;;;;;;19.02;10.15;;;;;;;12.66;70.68;96977.88;5047938;28;20091;-77